Time;durP1;ratioP1;P1;durP2;ratioP2;P2;SDS_P1;SDS_P2;PMS_P1;PMS_P2;Temp;Humidity;BMP_temperature;BMP_pressure;BME280_temperature;BME280_humidity;BME280_pressure;Samples;Min_cycle;Max_cycle;Signal;HPM_P1;HPM_P2
2024/03/01 00:01:19;;;;;;;12.75;5.50;;;;;;;2.02;59.91;98949.25;10422306;28;20049;-57
2024/03/01 00:06:21;;;;;;;11.38;5.03;;;;;;;1.91;59.94;98947.13;10427704;28;20063;-59
2024/03/01 00:11:24;;;;;;;14.57;5.72;;;;;;;1.86;60.09;98943.06;10425257;28;20069;-60
2024/03/01 00:16:26;;;;;;;9.63;4.93;;;;;;;1.83;60.06;98938.00;10426448;28;20037;-59
2024/03/01 00:21:28;;;;;;;11.43;5.40;;;;;;;1.79;60.16;98933.88;10426229;28;20120;-59
2024/03/01 00:26:30;;;;;;;9.45;4.68;;;;;;;1.77;60.14;98927.94;10456932;28;20056;-59
2024/03/01 00:31:32;;;;;;;10.40;4.45;;;;;;;1.70;60.30;98929.94;10427891;28;20991;-60
2024/03/01 00:36:34;;;;;;;10.95;5.45;;;;;;;1.68;60.23;98933.47;10425472;28;20041;-60
2024/03/01 00:41:36;;;;;;;7.68;4.15;;;;;;;1.68;60.35;98925.75;10425708;28;20686;-58
2024/03/01 00:46:38;;;;;;;9.32;4.25;;;;;;;1.66;60.43;98920.66;10410205;28;20072;-58
2024/03/01 00:51:41;;;;;;;11.02;4.45;;;;;;;1.60;60.58;98920.06;10424431;28;20076;-59
2024/03/01 00:56:45;;;;;;;11.68;4.43;;;;;;;1.56;60.71;98916.78;10423807;28;20049;-57
2024/03/01 01:01:48;;;;;;;10.57;4.80;;;;;;;1.45;60.80;98903.47;10426364;28;20056;-59
2024/03/01 01:06:51;;;;;;;10.00;4.82;;;;;;;1.42;61.15;98902.75;10422188;28;20122;-57
2024/03/01 01:11:53;;;;;;;10.23;4.40;;;;;;;1.33;60.72;98891.91;10422132;28;20067;-58
2024/03/01 01:16:55;;;;;;;11.43;5.10;;;;;;;1.26;61.05;98890.47;10420636;28;20052;-58
2024/03/01 01:21:57;;;;;;;11.32;5.25;;;;;;;1.29;61.00;98890.34;10425613;28;20037;-57
2024/03/01 01:26:59;;;;;;;12.68;4.85;;;;;;;1.26;61.19;98887.88;10424503;28;20496;-59
2024/03/01 01:32:01;;;;;;;10.50;4.82;;;;;;;1.28;61.05;98891.25;10427544;28;20501;-59
2024/03/01 01:37:04;;;;;;;10.25;4.80;;;;;;;1.31;60.98;98885.97;10423881;28;20048;-59
2024/03/01 01:42:06;;;;;;;7.82;4.03;;;;;;;1.24;61.06;98875.97;10421548;28;20048;-59
2024/03/01 01:47:08;;;;;;;9.40;4.45;;;;;;;1.23;61.04;98879.44;10421285;28;20072;-59
2024/03/01 01:52:10;;;;;;;9.73;4.53;;;;;;;1.25;61.12;98878.50;10425154;28;20300;-59
2024/03/01 01:57:13;;;;;;;14.75;4.70;;;;;;;1.23;61.11;98879.44;10426462;28;20440;-59
2024/03/01 02:02:15;;;;;;;11.07;4.82;;;;;;;1.09;61.39;98872.25;10430472;28;20127;-59
2024/03/01 02:07:17;;;;;;;9.00;4.35;;;;;;;1.16;61.53;98876.25;10462153;28;21046;-59
2024/03/01 02:12:21;;;;;;;9.45;4.53;;;;;;;1.30;61.34;98866.25;10428084;28;20061;-59
2024/03/01 02:17:24;;;;;;;10.85;4.57;;;;;;;1.45;61.18;98863.97;10412814;28;20133;-58
2024/03/01 02:22:27;;;;;;;9.50;4.82;;;;;;;1.45;61.00;98849.38;10428212;28;20060;-58
2024/03/01 02:27:29;;;;;;;8.75;4.72;;;;;;;1.70;61.08;98844.06;10431258;28;20063;-58
2024/03/01 02:32:32;;;;;;;11.63;4.93;;;;;;;1.85;60.90;98833.09;10432033;28;20080;-57
2024/03/01 02:37:35;;;;;;;18.33;4.90;;;;;;;1.92;60.82;98826.78;10431001;28;20080;-58
2024/03/01 02:42:37;;;;;;;9.50;4.75;;;;;;;2.09;60.78;98829.50;10442727;28;20037;-59
2024/03/01 02:47:40;;;;;;;8.65;4.80;;;;;;;2.13;60.65;98823.31;10429865;28;20049;-59
2024/03/01 02:52:43;;;;;;;10.32;4.25;;;;;;;2.18;60.60;98822.19;10430901;28;20056;-59
2024/03/01 02:57:45;;;;;;;12.07;3.85;;;;;;;2.15;60.48;98814.56;10430426;28;20040;-59
2024/03/01 03:02:47;;;;;;;9.23;4.78;;;;;;;2.05;60.69;98822.78;10427263;28;20049;-58
2024/03/01 03:07:50;;;;;;;9.43;4.63;;;;;;;2.21;60.75;98822.03;10426903;28;20056;-58
2024/03/01 03:12:52;;;;;;;13.10;5.25;;;;;;;2.36;60.54;98830.03;10424753;28;20041;-59
2024/03/01 03:17:54;;;;;;;10.35;5.45;;;;;;;2.44;60.34;98822.81;10428496;28;20151;-59
2024/03/01 03:22:56;;;;;;;12.55;5.43;;;;;;;2.22;60.25;98820.31;10429428;28;20692;-58
2024/03/01 03:27:58;;;;;;;12.18;4.50;;;;;;;1.84;61.13;98821.13;10411303;28;20141;-59
2024/03/01 03:33:00;;;;;;;12.80;5.05;;;;;;;1.76;61.85;98830.91;10429908;28;20099;-59
2024/03/01 03:38:03;;;;;;;9.32;5.07;;;;;;;1.72;61.64;98832.78;10427427;28;20056;-58
2024/03/01 03:43:05;;;;;;;8.25;4.13;;;;;;;1.72;61.45;98821.63;10428415;28;20040;-58
2024/03/01 03:48:07;;;;;;;12.10;4.97;;;;;;;1.53;61.80;98825.84;10429134;28;20064;-58
2024/03/01 03:53:10;;;;;;;11.60;4.97;;;;;;;1.51;61.89;98823.34;10426726;28;20080;-58
2024/03/01 03:58:12;;;;;;;11.25;5.28;;;;;;;1.38;61.96;98831.66;10426602;28;20091;-58
2024/03/01 04:03:14;;;;;;;9.55;5.20;;;;;;;1.30;62.05;98826.78;10426524;28;20126;-59
2024/03/01 04:08:16;;;;;;;14.02;5.10;;;;;;;1.30;62.07;98830.19;10427105;28;20331;-59
2024/03/01 04:13:18;;;;;;;12.35;5.38;;;;;;;1.51;62.17;98818.19;10424217;28;20049;-59
2024/03/01 04:18:20;;;;;;;8.50;5.25;;;;;;;1.78;61.78;98831.69;10424756;28;20072;-58
2024/03/01 04:23:23;;;;;;;9.32;4.30;;;;;;;1.98;61.61;98829.09;10409222;28;20130;-59
2024/03/01 04:28:25;;;;;;;8.98;4.78;;;;;;;2.13;61.54;98846.50;10431440;28;20543;-59
2024/03/01 04:33:28;;;;;;;10.15;4.53;;;;;;;2.24;61.31;98833.97;10431487;28;20049;-59
2024/03/01 04:38:30;;;;;;;13.60;5.40;;;;;;;2.42;61.21;98825.44;10428218;28;20056;-59
2024/03/01 04:43:32;;;;;;;10.02;4.68;;;;;;;2.44;61.13;98830.53;10432595;28;20392;-59
2024/03/01 04:48:34;;;;;;;10.73;5.00;;;;;;;2.35;60.91;98836.94;10429332;28;20049;-59
2024/03/01 04:53:36;;;;;;;10.25;4.45;;;;;;;2.27;61.29;98841.59;10429515;28;20048;-59
2024/03/01 04:58:38;;;;;;;11.88;5.47;;;;;;;2.21;61.20;98842.69;10429536;28;20056;-59
2024/03/01 05:03:44;;;;;;;13.63;5.10;;;;;;;2.10;61.33;98844.91;10426516;28;20408;-59
2024/03/01 05:08:47;;;;;;;8.73;4.07;;;;;;;2.12;61.38;98835.34;10428384;28;20056;-59
2024/03/01 05:13:49;;;;;;;8.20;4.55;;;;;;;2.19;61.09;98834.16;10429081;28;20064;-58
2024/03/01 05:18:51;;;;;;;9.93;4.57;;;;;;;2.22;61.37;98849.53;10429705;28;20159;-59
2024/03/01 05:23:53;;;;;;;10.40;4.50;;;;;;;2.32;61.59;98847.38;10431194;28;20064;-58
2024/03/01 05:28:55;;;;;;;13.57;5.78;;;;;;;2.31;61.47;98860.34;10427573;28;20060;-58
2024/03/01 05:33:57;;;;;;;10.60;4.78;;;;;;;2.31;61.31;98863.78;10434625;28;20064;-59
2024/03/01 05:38:59;;;;;;;11.73;5.43;;;;;;;2.27;61.27;98856.22;10435683;28;20045;-58
2024/03/01 05:44:01;;;;;;;10.60;5.03;;;;;;;2.08;61.86;98853.59;10470554;28;20291;-58
2024/03/01 05:49:03;;;;;;;11.07;4.97;;;;;;;2.26;61.87;98865.69;10432319;28;20141;-58
2024/03/01 05:54:06;;;;;;;10.65;4.80;;;;;;;2.41;61.34;98862.47;10438635;28;20049;-59
2024/03/01 05:59:08;;;;;;;9.77;5.15;;;;;;;2.40;61.33;98868.53;10435019;28;20404;-59
2024/03/01 06:04:10;;;;;;;9.32;4.85;;;;;;;2.39;61.47;98882.34;10436167;28;20049;-59
2024/03/01 06:09:12;;;;;;;10.93;5.28;;;;;;;2.44;61.53;98885.53;10435131;28;20057;-58
2024/03/01 06:14:15;;;;;;;10.95;5.22;;;;;;;2.50;61.37;98893.00;10435078;28;20057;-59
2024/03/01 06:19:17;;;;;;;11.45;5.60;;;;;;;2.70;61.47;98890.38;10432754;28;20397;-59
2024/03/01 06:24:19;;;;;;;13.18;5.60;;;;;;;2.75;61.19;98896.19;10433890;28;20048;-58
2024/03/01 06:29:21;;;;;;;10.18;4.88;;;;;;;2.84;61.33;98900.13;10435624;28;20076;-59
2024/03/01 06:34:24;;;;;;;9.00;4.15;;;;;;;2.98;61.12;98898.59;10435337;28;20060;-58
2024/03/01 06:39:26;;;;;;;10.23;5.63;;;;;;;3.07;60.85;98886.16;10437106;28;20126;-59
2024/03/01 06:44:28;;;;;;;13.32;5.22;;;;;;;3.05;60.86;98891.38;10436675;28;20053;-58
2024/03/01 06:49:30;;;;;;;13.52;5.38;;;;;;;3.11;60.79;98900.63;10433415;28;20526;-59
2024/03/01 06:54:32;;;;;;;9.50;4.43;;;;;;;3.13;60.66;98891.88;10433198;28;20083;-59
2024/03/01 06:59:34;;;;;;;11.02;4.90;;;;;;;2.96;60.59;98890.09;10434312;28;20065;-59
2024/03/01 07:04:36;;;;;;;11.98;5.50;;;;;;;3.11;60.95;98898.03;10434732;28;20107;-58
2024/03/01 07:09:38;;;;;;;10.52;5.70;;;;;;;3.40;60.73;98900.94;10435625;28;20053;-59
2024/03/01 07:14:42;;;;;;;16.63;6.32;;;;;;;3.78;60.12;98893.94;10430255;28;20075;-58
2024/03/01 07:19:44;;;;;;;13.25;5.22;;;;;;;4.09;59.84;98896.72;10435549;28;20417;-59
2024/03/01 07:24:46;;;;;;;12.27;5.50;;;;;;;4.42;59.53;98899.34;10433247;28;20132;-59
2024/03/01 07:29:48;;;;;;;9.20;5.38;;;;;;;4.57;59.23;98889.06;10432168;28;20039;-59
2024/03/01 07:34:50;;;;;;;11.93;5.75;;;;;;;4.65;59.09;98897.25;10432946;28;20056;-59
2024/03/01 07:39:52;;;;;;;13.82;5.90;;;;;;;4.68;59.10;98904.84;10432057;28;20033;-59
2024/03/01 07:44:55;;;;;;;11.70;5.65;;;;;;;4.83;59.07;98899.78;10432436;28;20049;-59
2024/03/01 07:49:58;;;;;;;10.85;5.40;;;;;;;4.95;58.74;98899.13;10431598;28;20814;-59
2024/03/01 07:55:00;;;;;;;13.40;6.18;;;;;;;5.22;58.56;98897.66;10431204;28;20049;-59
2024/03/01 08:00:03;;;;;;;17.60;8.52;;;;;;;5.52;57.92;98893.38;10431855;28;20048;-59
2024/03/01 08:05:06;;;;;;;14.30;6.93;;;;;;;5.69;57.89;98897.63;10431029;28;20045;-58
2024/03/01 08:10:15;;;;;;;14.70;7.53;;;;;;;5.93;57.75;98896.22;10428200;28;20061;-59
2024/03/01 08:15:29;;;;;;;14.35;6.57;;;;;;;6.07;57.36;98901.47;10418899;28;20516;-58
2024/03/01 08:20:34;;;;;;;13.77;6.60;;;;;;;6.07;57.62;98899.72;10403633;28;20162;-58
2024/03/01 08:25:36;;;;;;;10.90;6.60;;;;;;;6.32;57.48;98897.41;10425049;28;20053;-60
2024/03/01 08:30:46;;;;;;;15.50;8.02;;;;;;;6.65;56.66;98898.91;10425739;28;20123;-59
2024/03/01 08:35:49;;;;;;;16.83;7.32;;;;;;;6.83;56.89;98893.44;10419864;28;20045;-60
2024/03/01 08:40:54;;;;;;;13.25;7.18;;;;;;;6.85;56.55;98894.19;10417334;28;20041;-57
2024/03/01 08:46:01;;;;;;;16.60;6.97;;;;;;;6.85;56.57;98896.78;10416314;28;20793;-59
2024/03/01 08:51:08;;;;;;;14.85;7.15;;;;;;;6.73;56.98;98894.94;10416744;28;20102;-58
2024/03/01 08:56:17;;;;;;;15.63;7.72;;;;;;;6.82;56.62;98898.72;10424015;28;20140;-59
2024/03/01 09:01:34;;;;;;;14.05;6.95;;;;;;;6.73;56.91;98910.53;10422951;28;20099;-60
2024/03/01 09:06:59;;;;;;;14.63;7.10;;;;;;;6.84;56.78;98915.06;10421122;28;20045;-59
2024/03/01 09:12:07;;;;;;;13.68;7.22;;;;;;;7.02;56.91;98916.56;10462290;28;20052;-52
2024/03/01 09:17:12;;;;;;;12.25;6.13;;;;;;;7.01;56.95;98907.91;10412563;28;20333;-54
2024/03/01 09:22:16;;;;;;;14.50;6.45;;;;;;;7.16;56.90;98911.34;10427417;28;20048;-50
2024/03/01 09:27:30;;;;;;;11.82;6.15;;;;;;;7.42;56.38;98900.13;10434295;28;20143;-53
2024/03/01 09:32:34;;;;;;;14.68;7.22;;;;;;;7.46;56.59;98899.00;10400813;28;20053;-53
2024/03/01 09:37:38;;;;;;;14.27;6.45;;;;;;;7.76;56.76;98898.81;10434223;28;20420;-51
2024/03/01 09:42:55;;;;;;;15.90;6.25;;;;;;;7.88;56.38;98904.06;10416270;28;20126;-52
2024/03/01 09:48:12;;;;;;;11.27;6.05;;;;;;;7.97;56.35;98898.28;10433413;28;20045;-54
2024/03/01 09:53:39;;;;;;;14.98;6.00;;;;;;;8.02;56.64;98897.94;10433210;28;20037;-53
2024/03/01 09:59:17;;;;;;;10.35;5.25;;;;;;;8.04;56.67;98899.53;10430341;28;20051;-51
2024/03/01 10:04:46;;;;;;;10.80;4.85;;;;;;;8.02;57.19;98898.78;10432982;28;20057;-51
2024/03/01 10:10:04;;;;;;;9.63;4.78;;;;;;;8.25;57.22;98902.50;10431781;28;20523;-54
2024/03/01 10:15:36;;;;;;;8.55;4.70;;;;;;;8.41;57.30;98897.09;10429062;28;20380;-54
2024/03/01 10:20:51;;;;;;;8.50;4.00;;;;;;;8.39;57.41;98894.59;10417335;28;20044;-54
2024/03/01 10:26:02;;;;;;;6.72;3.88;;;;;;;8.45;57.43;98898.56;10448577;28;20053;-54
2024/03/01 10:31:27;;;;;;;7.80;4.00;;;;;;;8.61;57.35;98893.97;10432700;28;20048;-54
2024/03/01 10:36:44;;;;;;;6.78;2.97;;;;;;;8.82;57.14;98897.72;10433429;28;20416;-54
2024/03/01 10:41:53;;;;;;;6.30;3.17;;;;;;;8.93;56.97;98900.44;10432824;28;20051;-55
2024/03/01 10:47:25;;;;;;;6.75;3.00;;;;;;;9.00;56.61;98906.88;10429840;28;20405;-55
2024/03/01 10:52:37;;;;;;;5.97;3.63;;;;;;;8.96;56.79;98900.22;10431759;28;20044;-53
2024/03/01 10:58:25;;;;;;;7.10;3.47;;;;;;;8.68;57.43;98905.66;10429786;28;20048;-56
2024/03/01 11:03:48;;;;;;;11.38;3.65;;;;;;;8.86;57.21;98899.19;10422527;28;20268;-55
2024/03/01 11:08:58;;;;;;;23.40;6.32;;;;;;;8.92;56.84;98898.75;10415079;28;20104;-52
2024/03/01 11:14:05;;;;;;;12.87;4.87;;;;;;;8.89;56.78;98892.94;10411405;28;20041;-53
2024/03/01 11:19:12;;;;;;;6.38;2.63;;;;;;;9.45;56.28;98887.16;10429076;28;20040;-54
2024/03/01 11:24:43;;;;;;;5.15;2.20;;;;;;;9.77;54.67;98882.28;10429108;28;20067;-52
2024/03/01 11:29:53;;;;;;;2.72;1.40;;;;;;;9.90;54.06;98885.63;10425746;28;20049;-54
2024/03/01 11:35:07;;;;;;;3.88;1.40;;;;;;;10.10;53.21;98888.44;10429320;28;20080;-52
2024/03/01 11:40:23;;;;;;;1.83;1.20;;;;;;;10.32;53.03;98895.50;10430156;28;20139;-52
2024/03/01 11:45:43;;;;;;;2.30;1.48;;;;;;;10.23;51.63;98904.88;10427833;28;20076;-50
2024/03/01 11:51:04;;;;;;;1.00;0.90;;;;;;;10.46;50.78;98908.41;10430643;28;20558;-53
2024/03/01 11:56:29;;;;;;;1.73;1.10;;;;;;;10.50;50.07;98907.22;10429388;28;20496;-52
2024/03/01 12:02:00;;;;;;;3.33;1.40;;;;;;;10.36;48.89;98915.25;10428368;28;20098;-51
2024/03/01 12:07:22;;;;;;;;;;;;;;;10.23;50.07;98915.34;10426848;28;20167;-54
2024/03/01 12:12:24;;;;;;;0.77;0.77;;;;;;;10.63;50.05;98914.94;10429923;28;20363;-53
2024/03/01 12:17:32;;;;;;;2.90;1.80;;;;;;;10.67;49.54;98919.00;10426801;28;20053;-51
2024/03/01 12:23:02;;;;;;;1.98;1.40;;;;;;;10.81;49.11;98918.78;10445164;28;20084;-54
2024/03/01 12:28:17;;;;;;;3.20;1.60;;;;;;;11.16;49.08;98917.75;10429396;28;20508;-53
2024/03/01 12:33:31;;;;;;;1.83;0.88;;;;;;;11.30;48.19;98909.66;10428447;28;20041;-54
2024/03/01 12:38:39;;;;;;;1.00;0.90;;;;;;;11.40;48.26;98901.91;10427885;28;20044;-52
2024/03/01 12:43:48;;;;;;;0.90;0.80;;;;;;;11.39;47.88;98902.88;10427194;28;20046;-52
2024/03/01 12:49:11;;;;;;;13.40;9.18;;;;;;;11.32;47.40;98893.00;10428928;28;20040;-54
2024/03/01 12:54:23;;;;;;;5.50;2.20;;;;;;;11.41;48.50;98887.03;10427171;28;20055;-55
2024/03/01 12:59:40;;;;;;;2.60;1.65;;;;;;;11.26;48.92;98889.91;10428173;28;20091;-54
2024/03/01 13:05:06;;;;;;;14.45;2.78;;;;;;;11.24;47.43;98873.50;10425846;28;20412;-55
2024/03/01 13:10:13;;;;;;;4.05;1.50;;;;;;;11.52;48.57;98873.94;10427964;28;20571;-55
2024/03/01 13:15:27;;;;;;;5.03;2.25;;;;;;;11.71;47.17;98861.84;10425581;28;20087;-54
2024/03/01 13:20:36;;;;;;;1.83;0.82;;;;;;;11.94;45.88;98857.34;10430170;28;21309;-52
2024/03/01 13:26:07;;;;;;;0.90;0.73;;;;;;;12.18;46.05;98857.09;10429909;28;20043;-55
2024/03/01 13:31:14;;;;;;;0.70;0.70;;;;;;;12.26;45.83;98852.88;10422479;28;20061;-55
2024/03/01 13:36:26;;;;;;;1.55;0.90;;;;;;;12.00;45.58;98848.97;10430798;28;20451;-56
2024/03/01 13:41:34;;;;;;;1.65;1.02;;;;;;;12.15;46.55;98847.69;10430775;28;20049;-51
2024/03/01 13:46:39;;;;;;;1.77;1.05;;;;;;;12.28;46.06;98832.63;10425825;28;20080;-52
2024/03/01 13:51:43;;;;;;;1.23;0.70;;;;;;;12.13;46.34;98841.75;10431869;28;20048;-55
2024/03/01 13:56:46;;;;;;;0.40;0.40;;;;;;;12.28;46.35;98839.63;10434339;28;20725;-55
2024/03/01 14:01:49;;;;;;;0.60;0.60;;;;;;;12.42;46.10;98832.31;10434386;28;20041;-52
2024/03/01 14:06:52;;;;;;;1.25;0.88;;;;;;;12.56;47.54;98820.63;10434056;28;20059;-52
2024/03/01 14:11:54;;;;;;;0.60;0.60;;;;;;;13.10;45.24;98820.28;10431142;28;20061;-55
2024/03/01 14:16:58;;;;;;;0.57;0.57;;;;;;;12.73;44.97;98810.38;10429560;28;20420;-52
2024/03/01 14:22:01;;;;;;;0.98;0.80;;;;;;;12.63;45.75;98812.13;10427076;28;20041;-54
2024/03/01 14:27:05;;;;;;;0.55;0.55;;;;;;;12.60;45.07;98812.38;10429280;28;20056;-56
2024/03/01 14:32:21;;;;;;;1.00;0.70;;;;;;;12.55;43.79;98813.75;10425916;28;20067;-53
2024/03/01 14:37:28;;;;;;;2.15;1.10;;;;;;;12.43;44.95;98813.00;10423191;28;20052;-53
2024/03/01 14:42:30;;;;;;;2.05;0.98;;;;;;;12.26;44.90;98813.56;10424478;28;20125;-54
2024/03/01 14:47:46;;;;;;;1.70;1.13;;;;;;;12.19;43.96;98808.97;10426702;28;20049;-53
2024/03/01 14:52:53;;;;;;;1.73;1.25;;;;;;;11.92;44.60;98815.56;10427451;28;20409;-55
2024/03/01 14:57:59;;;;;;;2.40;1.20;;;;;;;11.80;45.21;98826.19;10425834;28;20087;-56
2024/03/01 15:03:02;;;;;;;1.83;1.10;;;;;;;11.60;45.51;98819.16;10424915;28;20045;-56
2024/03/01 15:08:05;;;;;;;1.95;1.17;;;;;;;11.68;45.43;98811.50;10424507;28;20059;-55
2024/03/01 15:13:08;;;;;;;1.90;1.10;;;;;;;11.44;45.71;98797.78;10426351;28;20414;-55
2024/03/01 15:18:12;;;;;;;2.03;1.30;;;;;;;11.11;45.45;98790.84;10462131;28;20424;-57
2024/03/01 15:23:16;;;;;;;1.73;1.10;;;;;;;11.19;45.79;98798.94;10429708;28;20041;-56
2024/03/01 15:28:18;;;;;;;1.83;1.30;;;;;;;11.15;45.77;98797.50;10428966;28;20064;-53
2024/03/01 15:33:20;;;;;;;4.40;1.10;;;;;;;11.16;45.86;98786.91;10411437;28;20041;-54
2024/03/01 15:38:23;;;;;;;1.08;0.98;;;;;;;11.05;46.38;98796.59;10426898;28;20041;-53
2024/03/01 15:43:25;;;;;;;2.05;1.00;;;;;;;10.86;46.72;98791.94;10428589;28;20076;-54
2024/03/01 15:48:28;;;;;;;1.23;0.80;;;;;;;10.67;46.88;98799.56;10426503;28;20079;-54
2024/03/01 15:53:30;;;;;;;1.35;0.75;;;;;;;10.57;47.04;98784.69;10425217;28;20134;-51
2024/03/01 15:58:33;;;;;;;1.05;0.80;;;;;;;10.48;47.21;98796.72;10427122;28;20049;-54
2024/03/01 16:03:36;;;;;;;1.02;0.80;;;;;;;10.50;47.14;98782.56;10428662;28;20164;-55
2024/03/01 16:08:38;;;;;;;0.85;0.77;;;;;;;10.42;47.59;98776.25;10428236;28;20463;-52
2024/03/01 16:13:42;;;;;;;1.15;0.85;;;;;;;10.21;47.75;98773.53;10426025;28;20048;-55
2024/03/01 16:18:44;;;;;;;1.88;1.02;;;;;;;10.16;47.67;98765.19;10429238;28;20497;-51
2024/03/01 16:23:50;;;;;;;1.52;0.75;;;;;;;9.96;47.89;98768.50;10424424;28;20374;-56
2024/03/01 16:28:55;;;;;;;0.60;0.60;;;;;;;9.74;48.21;98773.66;10426122;28;20134;-53
2024/03/01 16:33:57;;;;;;;1.48;0.80;;;;;;;9.49;48.59;98777.22;10425794;28;20060;-54
2024/03/01 16:39:00;;;;;;;1.50;0.80;;;;;;;9.30;48.85;98792.53;10427013;28;20068;-55
2024/03/01 16:44:04;;;;;;;0.80;0.80;;;;;;;9.16;49.00;98795.31;10427363;28;20047;-53
2024/03/01 16:49:32;;;;;;;1.42;0.93;;;;;;;9.09;49.29;98798.47;10426489;28;20045;-56
2024/03/01 16:54:36;;;;;;;2.20;1.25;;;;;;;8.98;49.45;98790.59;10427954;28;20106;-56
2024/03/01 16:59:39;;;;;;;2.50;0.95;;;;;;;8.81;49.75;98792.63;10426911;28;20579;-53
2024/03/01 17:04:41;;;;;;;0.75;0.75;;;;;;;8.60;50.25;98801.94;10427759;28;20413;-54
2024/03/01 17:09:44;;;;;;;1.70;1.08;;;;;;;8.51;50.39;98809.56;10426341;28;20107;-50
2024/03/01 17:14:47;;;;;;;3.30;1.60;;;;;;;8.47;50.57;98808.09;10427673;28;20490;-55
2024/03/01 17:19:49;;;;;;;1.73;1.30;;;;;;;8.35;50.94;98801.13;10425606;28;20055;-53
2024/03/01 17:24:52;;;;;;;1.52;1.20;;;;;;;8.21;51.09;98804.69;10422100;28;20045;-55
2024/03/01 17:29:54;;;;;;;2.25;1.50;;;;;;;8.10;51.41;98806.31;10434053;28;20045;-52
2024/03/01 17:34:56;;;;;;;0.85;0.75;;;;;;;8.01;51.65;98799.94;10435683;28;20041;-55
2024/03/01 17:39:58;;;;;;;3.13;1.08;;;;;;;7.96;51.82;98802.03;10433942;28;20489;-52
2024/03/01 17:45:01;;;;;;;2.00;1.17;;;;;;;7.83;52.23;98806.38;10435313;28;20045;-54
2024/03/01 17:50:03;;;;;;;0.77;0.77;;;;;;;7.73;52.21;98800.94;10434420;28;20132;-51
2024/03/01 17:55:05;;;;;;;11.10;2.97;;;;;;;7.53;52.54;98796.22;10435257;28;20619;-52
2024/03/01 18:00:08;;;;;;;1.70;1.08;;;;;;;7.52;52.81;98791.97;10431571;28;20452;-58
2024/03/01 18:05:11;;;;;;;1.67;1.10;;;;;;;7.50;53.32;98798.19;10434068;28;20044;-59
2024/03/01 18:10:19;;;;;;;1.67;0.95;;;;;;;7.36;53.47;98799.09;10433254;28;20134;-58
2024/03/01 18:15:21;;;;;;;2.13;1.05;;;;;;;7.36;53.63;98799.09;10430122;28;20179;-58
2024/03/01 18:20:24;;;;;;;1.60;1.10;;;;;;;7.20;53.54;98798.41;10429531;28;20065;-59
2024/03/01 18:25:27;;;;;;;1.33;1.10;;;;;;;7.03;53.88;98799.47;10425425;28;20718;-58
2024/03/01 18:30:32;;;;;;;1.80;1.20;;;;;;;6.88;54.19;98803.03;10427930;28;20499;-58
2024/03/01 18:35:34;;;;;;;3.85;1.33;;;;;;;6.94;54.13;98802.63;10431305;28;20098;-59
2024/03/01 18:40:36;;;;;;;1.77;1.23;;;;;;;6.90;54.20;98798.56;10426134;28;20773;-59
2024/03/01 18:45:39;;;;;;;1.67;1.20;;;;;;;6.65;54.59;98801.03;10430624;28;20143;-59
2024/03/01 18:50:42;;;;;;;2.38;1.40;;;;;;;6.35;55.18;98788.16;10430609;28;20706;-60
2024/03/01 18:55:44;;;;;;;2.40;1.30;;;;;;;6.22;55.47;98787.19;10428452;28;20480;-60
2024/03/01 19:00:46;;;;;;;3.17;1.70;;;;;;;6.17;55.77;98790.97;10425103;28;20056;-60
2024/03/01 19:05:57;;;;;;;;;;;;;;;6.01;56.90;98791.06;10426758;28;20049;-60
2024/03/01 19:10:59;;;;;;;4.10;1.90;;;;;;;5.99;56.24;98794.66;10422741;28;19928;-60
2024/03/01 19:16:04;;;;;;;3.42;2.05;;;;;;;6.01;56.35;98788.47;10432157;28;20045;-60
2024/03/01 19:21:06;;;;;;;5.32;3.08;;;;;;;5.97;56.43;98778.34;10429689;28;20045;-59
2024/03/01 19:26:08;;;;;;;5.35;2.30;;;;;;;5.93;56.78;98782.91;10429102;28;20048;-59
2024/03/01 19:31:10;;;;;;;6.05;3.03;;;;;;;5.95;56.85;98782.81;10431330;28;20059;-60
2024/03/01 19:36:12;;;;;;;5.80;2.33;;;;;;;5.89;56.92;98784.00;10429523;28;20045;-59
2024/03/01 19:41:18;;;;;;;5.82;2.50;;;;;;;5.80;57.07;98792.31;10428486;28;20592;-59
2024/03/01 19:46:20;;;;;;;8.02;2.72;;;;;;;5.85;57.13;98779.94;10412384;28;20049;-59
2024/03/01 19:51:22;;;;;;;11.50;3.60;;;;;;;5.79;57.21;98785.47;10433083;28;20112;-59
2024/03/01 19:56:25;;;;;;;9.02;4.65;;;;;;;5.71;57.30;98785.09;10432958;28;20923;-59
2024/03/01 20:01:27;;;;;;;8.32;4.50;;;;;;;5.65;57.45;98793.22;10431551;28;20049;-59
2024/03/01 20:06:30;;;;;;;8.02;3.83;;;;;;;5.60;57.86;98787.44;10432842;28;20048;-59
2024/03/01 20:11:32;;;;;;;10.77;4.75;;;;;;;5.53;57.59;98783.56;10432583;28;20102;-60
2024/03/01 20:16:35;;;;;;;13.63;4.07;;;;;;;5.39;58.03;98788.69;10432007;28;20505;-59
2024/03/01 20:21:37;;;;;;;8.75;4.30;;;;;;;5.23;58.06;98777.50;10425962;28;20056;-59
2024/03/01 20:26:39;;;;;;;7.85;3.70;;;;;;;5.16;58.43;98776.19;10431065;28;20068;-59
2024/03/01 20:31:42;;;;;;;10.80;5.65;;;;;;;5.14;58.48;98776.28;10430226;28;20130;-59
2024/03/01 20:36:44;;;;;;;11.88;4.93;;;;;;;5.00;58.47;98765.84;10430414;28;20056;-59
2024/03/01 20:41:47;;;;;;;6.57;3.22;;;;;;;4.96;58.67;98766.09;10428893;28;20045;-59
2024/03/01 20:46:53;;;;;;;5.60;3.30;;;;;;;5.10;58.76;98760.97;10429735;28;20041;-60
2024/03/01 20:51:56;;;;;;;7.13;4.22;;;;;;;5.14;58.86;98775.44;10430221;28;20041;-59
2024/03/01 20:56:58;;;;;;;6.00;3.30;;;;;;;5.20;58.66;98760.38;10428364;28;20417;-60
2024/03/01 21:02:05;;;;;;;27.27;3.58;;;;;;;5.21;58.81;98768.97;10425335;28;20045;-60
2024/03/01 21:07:09;;;;;;;6.68;3.38;;;;;;;5.13;58.53;98766.81;10427292;28;20057;-60
2024/03/01 21:12:11;;;;;;;5.45;3.05;;;;;;;5.04;59.03;98769.09;10422030;28;20045;-60
2024/03/01 21:17:14;;;;;;;7.35;3.35;;;;;;;5.07;58.94;98761.97;10421261;28;20051;-60
2024/03/01 21:22:16;;;;;;;5.93;2.97;;;;;;;4.98;59.01;98770.28;10426755;28;20056;-60
2024/03/01 21:27:22;;;;;;;5.78;3.13;;;;;;;4.89;59.16;98765.59;10427052;28;20037;-60
2024/03/01 21:32:25;;;;;;;7.75;3.53;;;;;;;4.60;59.96;98769.78;10426452;28;20124;-60
2024/03/01 21:37:28;;;;;;;8.43;4.28;;;;;;;4.41;60.01;98761.31;10460040;28;20132;-60
2024/03/01 21:42:30;;;;;;;8.38;4.20;;;;;;;4.28;60.32;98756.88;10462641;28;20131;-59
2024/03/01 21:47:35;;;;;;;8.30;4.20;;;;;;;4.39;60.29;98757.16;10430645;28;20037;-59
2024/03/01 21:52:39;;;;;;;6.45;3.85;;;;;;;4.48;60.35;98749.72;10429923;28;20049;-60
2024/03/01 21:57:43;;;;;;;8.25;3.83;;;;;;;4.51;60.33;98749.56;10410427;28;20049;-60
2024/03/01 22:02:47;;;;;;;8.55;3.47;;;;;;;4.55;60.29;98745.06;10431220;28;20055;-59
2024/03/01 22:07:53;;;;;;;5.85;3.67;;;;;;;4.58;60.37;98740.53;10430223;28;20045;-60
2024/03/01 22:13:11;;;;;;;8.65;4.40;;;;;;;4.60;60.49;98727.50;10463785;28;20055;-60
2024/03/01 22:18:18;;;;;;;5.47;2.60;;;;;;;4.59;60.63;98733.63;10437922;28;20516;-59
2024/03/01 22:23:23;;;;;;;5.85;3.25;;;;;;;4.54;60.29;98738.19;10438577;28;20046;-58
2024/03/01 22:28:26;;;;;;;5.00;2.78;;;;;;;4.34;61.01;98730.66;10437391;28;20071;-58
2024/03/01 22:33:30;;;;;;;4.65;2.60;;;;;;;4.37;61.15;98731.31;10437964;28;20073;-58
2024/03/01 22:38:33;;;;;;;4.45;2.63;;;;;;;4.21;61.88;98730.47;10437197;28;20497;-58
2024/03/01 22:43:37;;;;;;;6.45;3.70;;;;;;;4.32;61.28;98732.50;10437324;28;20056;-59
2024/03/01 22:48:40;;;;;;;5.97;3.47;;;;;;;4.37;61.40;98735.69;10437017;28;20056;-59
2024/03/01 22:53:43;;;;;;;7.28;3.75;;;;;;;4.42;61.32;98734.53;10437086;28;20060;-59
2024/03/01 22:58:49;;;;;;;8.80;3.95;;;;;;;4.53;61.36;98736.53;10436798;28;20128;-59
2024/03/01 23:03:53;;;;;;;5.72;3.38;;;;;;;4.47;61.43;98724.78;10436057;28;20059;-59
2024/03/01 23:08:59;;;;;;;7.18;3.65;;;;;;;4.58;61.72;98730.19;10435001;28;20653;-59
2024/03/01 23:14:06;;;;;;;8.27;3.83;;;;;;;4.60;61.45;98730.09;10436214;28;20048;-59
2024/03/01 23:19:08;;;;;;;6.32;3.55;;;;;;;4.63;61.31;98733.38;10435395;28;20527;-59
2024/03/01 23:24:11;;;;;;;6.13;3.38;;;;;;;4.53;61.16;98721.00;10435473;28;20072;-59
2024/03/01 23:29:13;;;;;;;6.38;3.63;;;;;;;4.44;61.47;98722.31;10435858;28;20060;-59
2024/03/01 23:34:15;;;;;;;5.70;3.03;;;;;;;4.44;61.66;98716.31;10402013;28;20480;-60
2024/03/01 23:39:17;;;;;;;4.80;2.95;;;;;;;4.46;61.61;98720.50;10434936;28;20060;-58
2024/03/01 23:44:21;;;;;;;4.95;2.70;;;;;;;4.41;61.62;98716.50;10435824;28;20049;-59
2024/03/01 23:49:23;;;;;;;4.68;2.83;;;;;;;4.32;61.96;98710.06;10434685;28;20501;-59